Time;durP1;ratioP1;P1;durP2;ratioP2;P2;SDS_P1;SDS_P2;PMS_P1;PMS_P2;Temp;Humidity;BMP_temperature;BMP_pressure;BME280_temperature;BME280_humidity;BME280_pressure;Samples;Min_cycle;Max_cycle;Signal;HPM_P1;HPM_P2
2022/04/13 00:00:36;;;;;;;13.60;11.23;;;11.60;99.90;;;;;;4959883;28;20044;-78
2022/04/13 00:03:22;;;;;;;11.85;10.48;;;11.60;99.90;;;;;;4959487;28;20564;-79
2022/04/13 00:05:59;;;;;;;12.38;10.85;;;11.50;99.90;;;;;;4975873;28;20046;-78
2022/04/13 00:08:31;;;;;;;11.90;10.40;;;11.50;99.90;;;;;;4959674;28;20053;-78
2022/04/13 00:11:07;;;;;;;11.60;10.50;;;11.50;99.90;;;;;;4959527;28;20570;-78
2022/04/13 00:13:35;;;;;;;11.90;10.45;;;11.50;99.90;;;;;;4959912;28;20093;-78
2022/04/13 00:16:07;;;;;;;13.68;11.30;;;11.40;99.90;;;;;;4961377;28;20037;-78
2022/04/13 00:18:41;;;;;;;12.68;10.55;;;11.40;99.90;;;;;;4963573;28;20042;-78
2022/04/13 00:21:15;;;;;;;11.18;10.07;;;11.40;99.90;;;;;;4945830;28;20510;-77
2022/04/13 00:24:01;;;;;;;12.45;10.40;;;11.40;99.90;;;;;;4960808;28;20042;-78
2022/04/13 00:26:30;;;;;;;13.00;10.45;;;11.40;99.90;;;;;;4960331;28;20034;-77
2022/04/13 00:29:11;;;;;;;17.73;10.50;;;11.30;99.90;;;;;;4960452;28;20047;-78
2022/04/13 00:31:44;;;;;;;12.20;10.20;;;11.30;99.90;;;;;;4958580;28;20065;-78
2022/04/13 00:34:15;;;;;;;11.05;9.85;;;11.30;99.90;;;;;;4959311;28;20077;-78
2022/04/13 00:36:44;;;;;;;12.63;10.43;;;11.30;99.90;;;;;;4959501;28;20049;-78
2022/04/13 00:39:12;;;;;;;15.40;10.98;;;11.30;99.90;;;;;;4959898;28;20050;-78
2022/04/13 00:42:01;;;;;;;13.55;10.57;;;11.30;99.90;;;;;;4957795;28;20062;-78
2022/04/13 00:44:28;;;;;;;12.00;10.70;;;11.30;99.90;;;;;;4959405;28;20392;-78
2022/04/13 00:47:13;;;;;;;12.95;10.68;;;11.30;99.90;;;;;;4959366;28;20042;-78
2022/04/13 00:49:44;;;;;;;11.90;10.68;;;11.30;99.90;;;;;;4959721;28;20042;-78
2022/04/13 00:52:18;;;;;;;13.20;11.20;;;11.30;99.90;;;;;;4963485;28;20045;-78
2022/04/13 00:54:53;;;;;;;13.43;10.70;;;11.30;99.90;;;;;;4959454;28;20066;-78
2022/04/13 00:57:33;;;;;;;12.35;11.02;;;11.30;99.90;;;;;;4958865;28;20497;-78
2022/04/13 01:00:05;;;;;;;13.88;11.55;;;11.30;99.90;;;;;;4958024;28;20072;-78
2022/04/13 01:02:45;;;;;;;13.07;11.75;;;11.30;99.90;;;;;;4958299;28;20500;-77
2022/04/13 01:05:20;;;;;;;13.05;11.05;;;11.30;99.90;;;;;;4959139;28;20072;-76
2022/04/13 01:07:54;;;;;;;14.00;11.68;;;11.30;99.90;;;;;;4958311;28;20501;-76
2022/04/13 01:10:32;;;;;;;13.23;11.63;;;11.30;99.90;;;;;;4957810;28;20046;-76
2022/04/13 01:13:06;;;;;;;15.55;11.73;;;11.30;99.90;;;;;;4958515;28;20436;-76
2022/04/13 01:15:45;;;;;;;14.90;11.13;;;11.30;99.90;;;;;;4958837;28;20050;-76
2022/04/13 01:18:22;;;;;;;14.57;11.35;;;11.30;99.90;;;;;;4958429;28;20038;-76
2022/04/13 01:20:57;;;;;;;14.27;11.65;;;11.30;99.90;;;;;;4973896;28;20046;-77
2022/04/13 01:23:29;;;;;;;12.43;10.82;;;11.20;99.90;;;;;;4969649;28;20050;-77
2022/04/13 01:25:58;;;;;;;15.60;11.48;;;11.10;99.90;;;;;;4974908;28;20532;-77
2022/04/13 01:28:30;;;;;;;14.23;12.10;;;11.00;99.90;;;;;;4974388;28;20141;-77
2022/04/13 01:31:02;;;;;;;12.82;11.52;;;11.00;99.90;;;;;;4973360;28;20046;-77
2022/04/13 01:33:34;;;;;;;15.45;12.38;;;10.90;99.90;;;;;;4958148;28;20042;-77
2022/04/13 01:36:03;;;;;;;13.38;12.00;;;10.90;99.90;;;;;;4958338;28;20638;-77
2022/04/13 01:38:30;;;;;;;13.10;11.45;;;10.90;99.90;;;;;;4957847;28;20293;-77
2022/04/13 01:40:59;;;;;;;13.32;11.93;;;10.80;99.90;;;;;;4958024;28;20085;-77
2022/04/13 01:43:25;;;;;;;13.18;11.70;;;10.70;99.90;;;;;;4958583;28;20045;-77
2022/04/13 01:45:57;;;;;;;14.30;12.65;;;10.80;99.90;;;;;;4961270;28;20030;-77
2022/04/13 01:48:25;;;;;;;13.48;11.77;;;10.80;99.90;;;;;;4961616;28;20045;-77
2022/04/13 01:51:00;;;;;;;14.63;11.80;;;10.70;99.90;;;;;;4961489;28;20042;-77
2022/04/13 01:53:28;;;;;;;13.80;11.70;;;10.70;99.90;;;;;;4961520;28;20086;-77
2022/04/13 01:56:05;;;;;;;14.65;12.18;;;10.70;99.90;;;;;;4961093;28;20124;-77
2022/04/13 01:58:55;;;;;;;13.18;11.88;;;10.60;99.90;;;;;;4961404;28;20043;-77
2022/04/13 02:01:34;;;;;;;16.90;12.18;;;10.60;99.90;;;;;;4962117;28;20038;-77
2022/04/13 02:04:14;;;;;;;13.43;11.77;;;10.70;99.90;;;;;;4961896;28;20042;-77
2022/04/13 02:06:43;;;;;;;14.38;12.88;;;10.70;99.90;;;;;;4960999;28;20038;-77
2022/04/13 02:09:14;;;;;;;14.27;12.77;;;10.70;99.90;;;;;;4977515;28;20031;-77
2022/04/13 02:11:50;;;;;;;12.30;10.70;;;10.70;99.90;;;;;;4960887;28;20097;-77
2022/04/13 02:14:18;;;;;;;12.48;10.75;;;10.70;99.90;;;;;;4961347;28;20104;-77
2022/04/13 02:16:48;;;;;;;13.35;12.00;;;10.60;99.90;;;;;;4960811;28;20501;-77
2022/04/13 02:19:20;;;;;;;13.15;11.85;;;10.60;99.90;;;;;;4960294;28;20113;-77
2022/04/13 02:22:05;;;;;;;14.38;12.45;;;10.60;99.90;;;;;;4977228;28;20094;-77
2022/04/13 02:24:39;;;;;;;15.48;12.32;;;10.60;99.90;;;;;;4961093;28;20521;-77
2022/04/13 02:27:26;;;;;;;14.73;12.88;;;10.50;99.90;;;;;;4961375;28;20050;-77
2022/04/13 02:29:55;;;;;;;13.85;12.38;;;10.50;99.90;;;;;;4960824;28;20050;-77
2022/04/13 02:32:27;;;;;;;14.98;12.18;;;10.40;99.90;;;;;;4960638;28;20038;-77
2022/04/13 02:35:01;;;;;;;13.00;11.45;;;10.50;99.90;;;;;;4960481;28;20046;-77
2022/04/13 02:37:30;;;;;;;14.48;11.68;;;10.40;99.90;;;;;;4960953;28;20074;-77
2022/04/13 02:40:03;;;;;;;12.95;11.05;;;10.40;99.90;;;;;;4961260;28;20047;-77
2022/04/13 02:42:44;;;;;;;14.02;12.35;;;10.30;99.90;;;;;;4961277;28;20089;-77
2022/04/13 02:45:24;;;;;;;19.25;13.10;;;10.10;99.90;;;;;;4976884;28;20086;-78
2022/04/13 02:47:53;;;;;;;17.40;13.02;;;10.20;99.90;;;;;;4960874;28;20133;-78
2022/04/13 02:50:19;;;;;;;21.02;12.35;;;10.10;99.90;;;;;;4960208;28;20049;-78
2022/04/13 02:52:56;;;;;;;16.52;13.18;;;10.10;99.90;;;;;;4960748;28;20121;-78
2022/04/13 02:55:22;;;;;;;19.80;14.57;;;10.00;99.90;;;;;;4959283;28;20042;-78
2022/04/13 02:57:51;;;;;;;17.90;14.38;;;10.00;99.90;;;;;;4960448;28;20500;-78
2022/04/13 03:00:22;;;;;;;23.27;15.07;;;10.10;99.90;;;;;;4960222;28;20128;-77
2022/04/13 03:02:50;;;;;;;21.58;15.60;;;10.10;99.90;;;;;;4960464;28;20046;-77
2022/04/13 03:05:25;;;;;;;21.63;15.30;;;10.10;99.90;;;;;;4959914;28;20043;-77
2022/04/13 03:07:58;;;;;;;21.95;16.02;;;10.10;99.90;;;;;;4960406;28;20042;-77
2022/04/13 03:10:31;;;;;;;17.95;15.63;;;10.10;99.90;;;;;;4960483;28;20046;-78
2022/04/13 03:13:03;;;;;;;22.88;16.88;;;10.10;99.90;;;;;;4960034;28;20125;-78
2022/04/13 03:15:44;;;;;;;22.02;16.70;;;10.10;99.90;;;;;;4977718;28;20458;-78
2022/04/13 03:18:33;;;;;;;21.63;16.33;;;10.00;99.90;;;;;;4960032;28;20049;-78
2022/04/13 03:20:59;;;;;;;23.33;16.48;;;10.10;99.90;;;;;;4976171;28;20038;-78
2022/04/13 03:23:25;;;;;;;20.98;16.52;;;10.00;99.90;;;;;;4975781;28;20042;-77
2022/04/13 03:25:55;;;;;;;22.48;15.55;;;10.00;99.90;;;;;;4959855;28;20042;-77
2022/04/13 03:28:26;;;;;;;24.83;16.02;;;10.00;99.90;;;;;;4959887;28;20130;-77
2022/04/13 03:30:57;;;;;;;23.35;17.42;;;10.00;99.90;;;;;;4961270;28;20081;-77
2022/04/13 03:33:30;;;;;;;23.25;16.52;;;9.90;99.90;;;;;;4977720;28;20043;-78
2022/04/13 03:36:01;;;;;;;23.98;17.23;;;10.00;99.90;;;;;;4961919;28;20192;-78
2022/04/13 03:38:33;;;;;;;23.73;17.38;;;10.00;99.90;;;;;;4985542;28;20081;-78
2022/04/13 03:40:58;;;;;;;23.40;17.58;;;10.10;99.90;;;;;;5027786;23;20064;-74
2022/04/13 03:43:26;;;;;;;22.77;17.23;;;10.20;99.90;;;;;;4994683;28;20570;-74
2022/04/13 03:45:52;;;;;;;23.08;17.83;;;10.20;99.90;;;;;;4994811;28;20072;-75
2022/04/13 03:48:17;;;;;;;22.55;17.10;;;10.10;99.90;;;;;;4994571;28;20050;-75
2022/04/13 03:50:43;;;;;;;22.17;17.05;;;10.10;99.90;;;;;;4978566;28;20411;-75
2022/04/13 03:53:08;;;;;;;21.20;17.02;;;10.00;99.90;;;;;;4994437;28;20065;-75
2022/04/13 03:55:34;;;;;;;26.55;19.13;;;9.90;99.90;;;;;;4994519;28;20136;-75
2022/04/13 03:57:59;;;;;;;25.75;19.85;;;9.90;99.90;;;;;;4994636;28;20059;-75
2022/04/13 04:00:26;;;;;;;26.50;19.05;;;9.90;99.90;;;;;;4994444;28;20045;-75
2022/04/13 04:02:52;;;;;;;22.45;18.58;;;9.90;99.90;;;;;;4994290;28;20512;-75
2022/04/13 04:05:17;;;;;;;26.15;20.77;;;9.90;99.90;;;;;;4994667;28;20052;-75
2022/04/13 04:07:43;;;;;;;23.88;18.88;;;9.90;99.90;;;;;;4994015;28;20037;-75
2022/04/13 04:10:10;;;;;;;19.15;16.65;;;9.80;99.90;;;;;;4993895;28;20381;-74
2022/04/13 04:12:41;;;;;;;25.35;18.35;;;9.80;99.90;;;;;;4993934;28;20045;-74
2022/04/13 04:15:11;;;;;;;24.75;19.20;;;9.80;99.90;;;;;;4994348;28;20429;-74
2022/04/13 04:17:37;;;;;;;24.10;18.75;;;9.70;99.90;;;;;;4994047;28;20593;-75
2022/04/13 04:20:04;;;;;;;25.08;19.20;;;9.70;99.90;;;;;;4994001;28;20073;-74
2022/04/13 04:22:30;;;;;;;22.98;18.60;;;9.60;99.90;;;;;;4977540;28;20041;-74
2022/04/13 04:24:55;;;;;;;24.13;18.58;;;9.70;99.90;;;;;;4994249;28;20041;-74
2022/04/13 04:27:21;;;;;;;22.15;18.38;;;9.60;99.90;;;;;;4994052;28;20133;-74
2022/04/13 04:29:46;;;;;;;23.70;17.63;;;9.70;99.90;;;;;;4993975;28;20128;-74
2022/04/13 04:32:12;;;;;;;24.35;18.75;;;9.80;99.90;;;;;;4993917;28;20053;-75
2022/04/13 04:34:38;;;;;;;23.48;18.27;;;9.80;99.90;;;;;;4993749;28;20502;-75
2022/04/13 04:37:04;;;;;;;22.60;17.95;;;9.80;99.90;;;;;;4993862;28;20046;-75
2022/04/13 04:39:29;;;;;;;23.05;18.45;;;9.80;99.90;;;;;;4993887;28;20048;-75
2022/04/13 04:41:55;;;;;;;20.45;17.60;;;9.70;99.90;;;;;;4993322;28;20038;-75
2022/04/13 04:44:21;;;;;;;21.10;18.05;;;9.80;99.90;;;;;;4994259;28;20050;-75
2022/04/13 04:46:46;;;;;;;23.33;18.55;;;9.70;99.90;;;;;;4994030;28;20092;-75
2022/04/13 04:49:12;;;;;;;23.95;17.90;;;9.70;99.90;;;;;;4993372;28;20404;-74
2022/04/13 04:51:38;;;;;;;22.08;18.63;;;9.70;99.90;;;;;;4993417;28;20074;-74
2022/04/13 04:54:04;;;;;;;24.70;18.20;;;9.80;99.90;;;;;;4993904;28;20049;-74
2022/04/13 04:56:30;;;;;;;23.65;18.02;;;9.80;99.90;;;;;;4994167;28;20030;-75
2022/04/13 04:58:56;;;;;;;21.45;18.15;;;9.80;99.90;;;;;;4993749;28;20040;-75
2022/04/13 05:01:22;;;;;;;23.35;18.13;;;9.80;99.90;;;;;;4977356;28;20049;-74
2022/04/13 05:03:50;;;;;;;24.88;18.98;;;9.80;99.90;;;;;;4977460;28;20030;-74
2022/04/13 05:06:19;;;;;;;21.55;19.13;;;9.80;99.90;;;;;;4993751;28;20042;-75
2022/04/13 05:08:44;;;;;;;23.15;17.80;;;9.90;99.90;;;;;;4993540;28;20034;-74
2022/04/13 05:11:10;;;;;;;23.15;17.98;;;9.90;99.90;;;;;;4993160;28;20053;-74
2022/04/13 05:13:35;;;;;;;22.13;18.05;;;10.00;99.90;;;;;;4977368;28;20042;-74
2022/04/13 05:16:01;;;;;;;22.25;18.27;;;9.90;99.90;;;;;;4993265;28;20436;-74
2022/04/13 05:18:26;;;;;;;21.50;17.75;;;9.80;99.90;;;;;;4994580;28;20115;-75
2022/04/13 05:20:53;;;;;;;26.20;18.70;;;9.90;99.90;;;;;;4997349;28;20102;-74
2022/04/13 05:23:18;;;;;;;23.33;19.58;;;9.90;99.90;;;;;;4997256;28;20050;-74
2022/04/13 05:25:46;;;;;;;20.73;18.25;;;9.90;99.90;;;;;;4978713;28;20040;-74
2022/04/13 05:28:12;;;;;;;23.15;18.35;;;9.90;99.90;;;;;;4985012;28;20042;-74
2022/04/13 05:30:37;;;;;;;21.35;18.98;;;9.90;99.90;;;;;;4996766;28;20064;-74
2022/04/13 05:33:03;;;;;;;20.15;17.98;;;9.90;99.90;;;;;;4996727;28;20069;-74
2022/04/13 05:35:29;;;;;;;21.38;18.48;;;9.80;99.90;;;;;;4997387;28;20044;-74
2022/04/13 05:37:55;;;;;;;23.70;19.42;;;9.90;99.90;;;;;;4996243;28;20042;-74
2022/04/13 05:40:23;;;;;;;28.50;19.90;;;9.90;99.90;;;;;;4996551;28;20033;-74
2022/04/13 05:42:50;;;;;;;25.40;18.80;;;9.90;99.90;;;;;;4997146;28;20042;-74
2022/04/13 05:45:16;;;;;;;22.67;18.77;;;10.00;99.90;;;;;;4980775;28;20100;-74
2022/04/13 05:47:43;;;;;;;26.80;18.88;;;10.00;99.90;;;;;;4996468;28;20063;-74
2022/04/13 05:50:10;;;;;;;21.38;18.77;;;10.00;99.90;;;;;;4996640;28;20034;-74
2022/04/13 05:52:36;;;;;;;21.20;18.23;;;10.00;99.90;;;;;;4980854;28;20512;-74
2022/04/13 05:55:02;;;;;;;27.25;20.17;;;10.10;99.90;;;;;;4997102;28;20061;-74
2022/04/13 05:57:27;;;;;;;21.70;18.30;;;10.10;99.90;;;;;;4996302;28;20042;-74
2022/04/13 05:59:53;;;;;;;24.67;18.02;;;10.10;99.90;;;;;;4996410;28;20034;-74
2022/04/13 06:02:19;;;;;;;23.63;18.98;;;10.20;99.90;;;;;;4996565;28;20085;-74
2022/04/13 06:04:45;;;;;;;23.70;18.55;;;10.40;99.90;;;;;;4996817;28;20087;-74
2022/04/13 06:07:10;;;;;;;22.52;18.73;;;10.50;99.90;;;;;;4996145;28;20039;-74
2022/04/13 06:09:36;;;;;;;19.75;17.10;;;10.70;99.90;;;;;;4996275;28;20077;-75
2022/04/13 06:12:02;;;;;;;25.10;17.60;;;10.80;99.90;;;;;;4992795;28;20081;-75
2022/04/13 06:14:27;;;;;;;23.88;17.45;;;11.00;99.90;;;;;;4979157;28;20125;-75
2022/04/13 06:16:53;;;;;;;22.27;18.00;;;11.20;99.90;;;;;;4980033;28;20030;-75
2022/04/13 06:19:18;;;;;;;21.45;17.27;;;11.30;99.90;;;;;;4995870;28;20065;-75
2022/04/13 06:21:44;;;;;;;23.05;17.20;;;11.40;99.90;;;;;;4995826;28;20041;-76
2022/04/13 06:24:10;;;;;;;23.80;17.63;;;11.60;99.90;;;;;;4995803;28;20049;-77
2022/04/13 06:26:36;;;;;;;19.85;16.92;;;11.70;99.90;;;;;;4995918;28;20492;-75
2022/04/13 06:29:01;;;;;;;22.25;16.63;;;11.80;99.90;;;;;;4995091;28;20065;-74
2022/04/13 06:31:27;;;;;;;23.13;17.48;;;11.90;99.90;;;;;;4978812;28;20033;-74
2022/04/13 06:33:52;;;;;;;21.27;16.10;;;12.10;99.90;;;;;;4996148;28;20084;-73
2022/04/13 06:36:19;;;;;;;17.92;15.23;;;12.20;99.90;;;;;;5012325;28;20554;-74
2022/04/13 06:38:44;;;;;;;19.30;14.82;;;12.30;99.90;;;;;;5009500;28;20064;-73
2022/04/13 06:41:11;;;;;;;19.77;15.40;;;12.40;99.90;;;;;;4995600;28;20037;-73
2022/04/13 06:43:37;;;;;;;19.63;15.20;;;12.50;99.90;;;;;;4995576;28;20479;-74
2022/04/13 06:46:04;;;;;;;17.02;14.30;;;12.70;99.90;;;;;;4995718;28;20037;-73
2022/04/13 06:48:29;;;;;;;18.67;13.52;;;12.90;99.90;;;;;;4995490;28;20100;-73
2022/04/13 06:50:55;;;;;;;18.58;14.07;;;13.10;99.90;;;;;;4996184;28;20037;-73
2022/04/13 06:53:20;;;;;;;15.77;12.90;;;13.20;99.90;;;;;;4991376;28;20866;-73
2022/04/13 06:55:50;;;;;;;16.23;12.70;;;13.30;99.90;;;;;;4994509;28;20443;-73
2022/04/13 06:58:16;;;;;;;14.68;13.10;;;13.40;99.90;;;;;;4994775;28;20030;-74
2022/04/13 07:00:42;;;;;;;16.00;13.27;;;13.50;99.90;;;;;;4994457;28;20038;-73
2022/04/13 07:03:07;;;;;;;15.25;12.05;;;13.60;99.90;;;;;;4995490;28;20038;-73
2022/04/13 07:05:33;;;;;;;17.95;11.98;;;13.70;99.90;;;;;;4995597;28;20515;-73
2022/04/13 07:08:00;;;;;;;15.65;11.70;;;13.80;99.90;;;;;;4979344;28;20469;-73
2022/04/13 07:10:27;;;;;;;14.65;11.15;;;13.90;99.90;;;;;;4995176;28;20041;-74
2022/04/13 07:12:53;;;;;;;16.88;10.57;;;14.00;99.90;;;;;;4995218;28;20139;-74
2022/04/13 07:15:18;;;;;;;14.57;10.35;;;14.00;99.90;;;;;;4995419;28;20636;-74
2022/04/13 07:17:44;;;;;;;15.57;10.48;;;14.00;99.90;;;;;;4995374;28;20038;-74
2022/04/13 07:20:11;;;;;;;12.55;10.35;;;14.10;99.90;;;;;;4978292;28;20080;-74
2022/04/13 07:22:48;;;;;;;15.32;10.20;;;14.20;99.90;;;;;;4979154;28;20092;-74
2022/04/13 07:25:14;;;;;;;13.82;10.95;;;14.30;99.90;;;;;;4994431;28;20045;-74
2022/04/13 07:27:40;;;;;;;14.20;10.45;;;14.30;99.90;;;;;;4994433;28;20045;-74
2022/04/13 07:30:07;;;;;;;13.82;10.60;;;14.30;99.90;;;;;;4994980;28;20046;-73
2022/04/13 07:32:33;;;;;;;14.93;9.85;;;14.20;99.90;;;;;;4993881;28;20061;-73
2022/04/13 07:34:59;;;;;;;14.40;10.20;;;14.30;99.90;;;;;;4993289;28;20045;-73
2022/04/13 07:37:28;;;;;;;11.80;10.57;;;14.30;99.90;;;;;;4993281;28;20092;-74
2022/04/13 07:39:53;;;;;;;11.35;10.13;;;14.30;99.90;;;;;;4990667;28;20034;-75
2022/04/13 07:42:23;;;;;;;15.98;10.25;;;14.50;99.90;;;;;;4990426;28;20103;-74
2022/04/13 07:44:48;;;;;;;14.57;10.57;;;14.60;99.90;;;;;;4994065;28;20045;-74
2022/04/13 07:47:14;;;;;;;12.85;9.52;;;14.70;99.90;;;;;;4991487;28;20490;-75
2022/04/13 07:49:41;;;;;;;12.88;10.32;;;14.80;99.90;;;;;;4995818;28;20056;-76
2022/04/13 07:52:07;;;;;;;15.30;9.95;;;14.90;99.90;;;;;;4994915;28;20125;-77
2022/04/13 07:54:34;;;;;;;12.25;10.80;;;15.10;99.90;;;;;;4995647;28;20041;-77
2022/04/13 07:57:00;;;;;;;16.75;9.68;;;15.30;99.90;;;;;;4989607;28;20427;-78
2022/04/13 07:59:27;;;;;;;16.17;9.98;;;15.30;99.90;;;;;;4980756;28;20042;-75
2022/04/13 08:01:53;;;;;;;13.38;9.68;;;15.40;99.90;;;;;;4982699;28;20081;-75
2022/04/13 08:04:18;;;;;;;10.68;9.18;;;15.30;99.90;;;;;;4991283;28;20069;-75
2022/04/13 08:06:44;;;;;;;13.38;9.90;;;15.10;99.90;;;;;;4994372;28;20038;-75
2022/04/13 08:09:09;;;;;;;11.48;9.82;;;15.00;99.90;;;;;;4990033;28;20579;-75
2022/04/13 08:11:35;;;;;;;12.68;10.55;;;15.00;99.90;;;;;;4985639;28;20052;-74
2022/04/13 08:14:00;;;;;;;12.88;9.52;;;15.00;99.90;;;;;;4992229;28;20061;-75
2022/04/13 08:16:26;;;;;;;12.15;9.93;;;15.00;99.90;;;;;;4993166;28;20033;-75
2022/04/13 08:18:51;;;;;;;14.15;10.30;;;15.00;99.90;;;;;;4992488;28;20338;-75
2022/04/13 08:21:17;;;;;;;13.32;9.82;;;15.30;99.90;;;;;;4994439;28;20038;-75
2022/04/13 08:23:42;;;;;;;14.70;9.93;;;15.50;99.90;;;;;;4992700;28;20041;-75
2022/04/13 08:26:08;;;;;;;13.30;10.25;;;15.70;99.90;;;;;;4990810;28;20115;-75
2022/04/13 08:28:34;;;;;;;14.40;10.30;;;15.80;99.90;;;;;;4987976;28;20515;-75
2022/04/13 08:31:02;;;;;;;15.18;10.68;;;16.00;99.90;;;;;;4992643;28;20053;-75
2022/04/13 08:33:27;;;;;;;13.57;9.93;;;16.20;99.90;;;;;;4988218;28;20049;-75
2022/04/13 08:35:53;;;;;;;13.80;9.45;;;16.70;99.90;;;;;;4978128;28;20496;-75
2022/04/13 08:38:18;;;;;;;13.48;9.07;;;17.20;99.90;;;;;;4992725;28;20045;-75
2022/04/13 08:40:56;;;;;;;10.77;8.80;;;17.50;99.90;;;;;;4988540;28;20429;-75
2022/04/13 08:43:30;;;;;;;11.65;8.10;;;17.50;99.90;;;;;;4978737;28;20081;-75
2022/04/13 08:45:59;;;;;;;11.07;8.32;;;17.40;99.90;;;;;;4991605;28;20045;-75
2022/04/13 08:48:26;;;;;;;11.25;8.52;;;17.60;99.90;;;;;;4988658;28;20042;-75
2022/04/13 08:51:02;;;;;;;11.15;8.05;;;18.00;99.90;;;;;;4982761;28;20038;-75
2022/04/13 08:53:29;;;;;;;9.63;7.80;;;18.40;99.90;;;;;;5007796;28;20144;-75
2022/04/13 08:55:57;;;;;;;16.77;8.98;;;18.60;99.90;;;;;;4994395;28;20541;-75
2022/04/13 08:58:53;;;;;;;9.32;7.25;;;18.90;99.90;;;;;;4996646;28;20053;-75
2022/04/13 09:01:35;;;;;;;9.70;6.95;;;19.40;99.90;;;;;;4998061;28;20355;-75
2022/04/13 09:04:06;;;;;;;10.07;6.35;;;20.00;99.90;;;;;;4995837;28;20120;-75
2022/04/13 09:06:33;;;;;;;8.32;6.60;;;20.30;99.90;;;;;;4986135;28;20042;-75
2022/04/13 09:09:01;;;;;;;11.07;7.00;;;20.10;99.90;;;;;;4995343;28;20042;-75
2022/04/13 09:11:28;;;;;;;9.23;7.65;;;19.90;99.90;;;;;;4979865;28;20049;-75
2022/04/13 09:13:54;;;;;;;7.93;6.22;;;19.90;99.90;;;;;;4994810;28;20404;-75
2022/04/13 09:16:19;;;;;;;8.82;6.97;;;19.90;99.90;;;;;;4988249;28;20046;-76
2022/04/13 09:18:46;;;;;;;8.73;6.78;;;19.60;99.90;;;;;;4994816;28;20048;-75
2022/04/13 09:21:13;;;;;;;8.32;6.28;;;19.30;99.90;;;;;;4996603;28;20057;-75
2022/04/13 09:23:39;;;;;;;11.90;6.35;;;19.10;99.90;;;;;;5002140;28;20492;-75
2022/04/13 09:26:08;;;;;;;10.10;6.82;;;18.80;99.90;;;;;;4987120;28;20568;-75
2022/04/13 09:28:34;;;;;;;9.05;6.80;;;18.60;99.90;;;;;;4991297;28;20137;-75
2022/04/13 09:31:00;;;;;;;9.27;6.95;;;18.30;99.90;;;;;;4977084;28;20684;-77
2022/04/13 09:33:26;;;;;;;7.70;5.93;;;18.30;99.90;;;;;;4991767;28;20044;-76
2022/04/13 09:35:53;;;;;;;8.98;6.53;;;18.30;99.90;;;;;;4979184;28;20030;-76
2022/04/13 09:38:19;;;;;;;9.95;6.45;;;18.40;99.90;;;;;;4982024;28;20049;-76
2022/04/13 09:40:45;;;;;;;9.15;7.15;;;18.70;99.90;;;;;;4986871;23;20149;-75
2022/04/13 09:43:12;;;;;;;8.98;6.78;;;18.90;99.90;;;;;;5001564;28;20042;-75
2022/04/13 09:45:43;;;;;;;9.15;7.28;;;19.00;99.90;;;;;;4998781;28;20034;-75
2022/04/13 09:48:11;;;;;;;10.07;7.45;;;19.30;99.90;;;;;;4976240;28;20045;-76
2022/04/13 09:50:37;;;;;;;8.55;7.00;;;19.60;99.90;;;;;;4989491;28;20100;-76
2022/04/13 09:53:05;;;;;;;9.23;6.95;;;20.00;99.90;;;;;;5007359;28;20462;-76
2022/04/13 09:55:36;;;;;;;9.15;7.03;;;20.40;99.90;;;;;;4987573;28;20034;-76
2022/04/13 09:58:06;;;;;;;9.55;6.30;;;20.90;99.90;;;;;;5014970;28;20045;-76
2022/04/13 10:00:33;;;;;;;8.27;6.20;;;21.40;99.90;;;;;;5012663;28;20038;-75
2022/04/13 10:03:16;;;;;;;6.93;5.82;;;21.80;99.90;;;;;;4994982;28;20052;-76
2022/04/13 10:05:50;;;;;;;8.10;6.10;;;22.00;99.90;;;;;;5011709;28;20141;-76
2022/04/13 10:08:22;;;;;;;9.05;5.93;;;22.00;99.90;;;;;;5021469;28;20431;-74
2022/04/13 10:10:48;;;;;;;7.43;5.80;;;22.10;99.90;;;;;;5003200;28;20061;-74
2022/04/13 10:13:31;;;;;;;7.47;5.00;;;22.20;99.90;;;;;;4993493;28;20432;-74
2022/04/13 10:15:57;;;;;;;5.97;4.90;;;22.40;95.50;;;;;;4995847;28;20121;-74
2022/04/13 10:18:23;;;;;;;5.13;4.40;;;22.50;96.30;;;;;;5011901;28;20045;-73
2022/04/13 10:20:49;;;;;;;8.63;5.20;;;22.50;95.80;;;;;;4987186;28;20033;-73
2022/04/13 10:23:15;;;;;;;7.93;5.32;;;22.60;96.60;;;;;;5016011;28;20041;-73
2022/04/13 10:25:44;;;;;;;7.88;6.00;;;22.70;93.70;;;;;;5008241;28;20097;-74
2022/04/13 10:28:14;;;;;;;6.78;5.70;;;22.80;91.80;;;;;;4989400;28;20076;-74
2022/04/13 10:30:42;;;;;;;7.68;5.93;;;22.90;94.90;;;;;;4993351;28;20041;-74
2022/04/13 10:33:13;;;;;;;7.20;5.78;;;23.20;95.20;;;;;;4996527;28;20030;-74
2022/04/13 10:35:40;;;;;;;9.25;6.03;;;23.30;93.70;;;;;;5001363;28;20037;-73
2022/04/13 10:38:06;;;;;;;8.82;6.55;;;23.40;92.30;;;;;;4993968;28;20053;-74
2022/04/13 10:40:39;;;;;;;9.15;6.85;;;23.50;90.70;;;;;;5002276;28;20034;-74
2022/04/13 10:43:06;;;;;;;7.97;6.68;;;23.70;88.80;;;;;;4987633;28;20046;-74
2022/04/13 10:45:35;;;;;;;5.70;4.03;;;23.60;89.70;;;;;;5005898;28;20064;-74
2022/04/13 10:48:05;;;;;;;6.95;6.18;;;23.20;86.80;;;;;;4996253;28;20075;-74
2022/04/13 10:50:59;;;;;;;8.60;6.57;;;22.80;88.70;;;;;;5014733;28;20503;-74
2022/04/13 10:53:28;;;;;;;7.80;5.53;;;22.70;85.70;;;;;;5010967;28;20041;-74
2022/04/13 10:56:02;;;;;;;7.30;5.80;;;22.20;87.50;;;;;;5014157;28;20041;-73
2022/04/13 10:59:00;;;;;;;7.40;6.00;;;21.70;89.80;;;;;;5009595;28;20108;-73
2022/04/13 11:01:30;;;;;;;6.78;6.03;;;21.50;91.90;;;;;;5010163;28;20042;-73
2022/04/13 11:03:57;;;;;;;7.38;6.35;;;21.70;91.90;;;;;;4997441;28;20145;-74
2022/04/13 11:06:24;;;;;;;7.05;5.97;;;21.90;91.90;;;;;;4990369;28;20038;-74
2022/04/13 11:09:00;;;;;;;6.60;5.95;;;21.90;91.50;;;;;;5001379;28;20034;-74
2022/04/13 11:11:28;;;;;;;7.20;4.90;;;22.00;92.10;;;;;;5004076;28;20041;-73
2022/04/13 11:13:54;;;;;;;7.07;4.93;;;22.00;90.90;;;;;;4994873;28;20152;-74
2022/04/13 11:16:25;;;;;;;9.10;6.82;;;21.80;88.40;;;;;;5004920;28;20499;-74
2022/04/13 11:19:06;;;;;;;8.25;6.82;;;21.50;88.80;;;;;;4994670;28;20033;-73
2022/04/13 11:21:51;;;;;;;7.60;6.43;;;21.20;89.30;;;;;;5003948;28;20054;-74
2022/04/13 11:24:35;;;;;;;7.35;6.35;;;21.00;91.00;;;;;;5004443;28;20035;-74
2022/04/13 11:27:03;;;;;;;7.25;6.13;;;20.70;93.20;;;;;;4992460;28;20038;-74
2022/04/13 11:29:39;;;;;;;9.15;6.82;;;20.50;93.80;;;;;;4998533;28;20041;-74
2022/04/13 11:32:10;;;;;;;7.15;6.43;;;20.30;94.60;;;;;;5001346;28;20044;-74
2022/04/13 11:34:43;;;;;;;9.40;7.28;;;20.20;96.70;;;;;;5002613;28;20046;-74
2022/04/13 11:37:17;;;;;;;9.85;7.80;;;20.00;96.30;;;;;;5006572;28;20041;-74
2022/04/13 11:39:50;;;;;;;11.30;7.93;;;19.90;97.40;;;;;;5006263;28;20072;-74
2022/04/13 11:42:19;;;;;;;13.85;8.60;;;19.90;97.50;;;;;;5002173;28;20512;-74
2022/04/13 11:45:01;;;;;;;10.32;8.80;;;19.90;99.30;;;;;;5002488;28;20084;-74
2022/04/13 11:47:37;;;;;;;11.52;9.73;;;20.10;99.90;;;;;;5000475;28;20069;-74
2022/04/13 11:50:18;;;;;;;13.40;9.35;;;20.30;99.80;;;;;;4991284;28;20042;-74
2022/04/13 11:52:52;;;;;;;11.15;9.48;;;20.40;98.50;;;;;;4988208;28;20042;-74
2022/04/13 11:55:31;;;;;;;11.05;8.63;;;20.50;98.90;;;;;;5007001;28;20120;-74
2022/04/13 11:58:04;;;;;;;12.63;8.75;;;20.70;99.50;;;;;;5004064;28;20038;-73
2022/04/13 12:00:59;;;;;;;14.65;8.77;;;20.70;98.70;;;;;;4999084;28;20042;-74
2022/04/13 12:03:33;;;;;;;17.25;8.55;;;20.50;97.70;;;;;;4986734;28;20507;-73
2022/04/13 12:06:22;;;;;;;11.38;8.00;;;20.30;98.50;;;;;;5007130;28;20052;-73
2022/04/13 12:08:52;;;;;;;15.38;8.65;;;20.10;97.40;;;;;;5003011;28;20158;-73
2022/04/13 12:11:20;;;;;;;13.00;8.65;;;19.90;99.90;;;;;;5001065;28;20046;-73
2022/04/13 12:13:51;;;;;;;13.20;8.05;;;19.80;99.90;;;;;;5001162;28;20121;-73
2022/04/13 12:16:28;;;;;;;10.05;7.20;;;19.60;99.90;;;;;;5004234;28;20473;-73
2022/04/13 12:18:59;;;;;;;15.77;8.15;;;19.50;99.90;;;;;;5007278;28;20053;-73
2022/04/13 12:21:26;;;;;;;14.00;7.60;;;19.40;99.90;;;;;;4998615;28;20034;-73
2022/04/13 12:23:53;;;;;;;11.32;5.90;;;19.20;99.90;;;;;;5006404;28;20041;-74
2022/04/13 12:26:36;;;;;;;13.52;6.57;;;19.00;99.90;;;;;;4999808;28;20072;-73
2022/04/13 12:29:17;;;;;;;9.35;5.10;;;18.80;99.90;;;;;;5006919;28;20041;-73
2022/04/13 12:31:44;;;;;;;11.43;5.22;;;18.60;99.90;;;;;;5010342;28;20030;-74
2022/04/13 12:34:14;;;;;;;10.50;4.60;;;18.60;99.90;;;;;;5002229;28;20042;-74
2022/04/13 12:36:40;;;;;;;11.52;5.00;;;18.60;99.90;;;;;;5004940;28;20042;-74
2022/04/13 12:39:09;;;;;;;10.20;4.70;;;18.70;99.90;;;;;;5009356;28;20045;-73
2022/04/13 12:41:35;;;;;;;8.80;3.95;;;18.70;99.90;;;;;;4999883;28;20365;-74
2022/04/13 12:44:01;;;;;;;11.13;4.57;;;18.60;99.90;;;;;;4999256;28;20044;-74
2022/04/13 12:46:29;;;;;;;11.43;4.75;;;18.50;99.90;;;;;;4993980;28;20397;-74